sensor_id;sensor_type;location;lat;lon;timestamp;P1;durP1;ratioP1;P2;durP2;ratioP2
45236;SDS011;30973;51.442;3.580;2024-02-21T00:01:01;7.75;;;2.85;;
45236;SDS011;30973;51.442;3.580;2024-02-21T00:03:32;7.72;;;2.20;;
45236;SDS011;30973;51.442;3.580;2024-02-21T00:06:11;6.35;;;2.90;;
45236;SDS011;30973;51.442;3.580;2024-02-21T00:08:59;8.73;;;2.85;;
45236;SDS011;30973;51.442;3.580;2024-02-21T00:15:24;7.45;;;3.15;;
45236;SDS011;30973;51.442;3.580;2024-02-21T00:18:13;9.23;;;3.00;;
45236;SDS011;30973;51.442;3.580;2024-02-21T00:20:50;8.18;;;3.40;;
45236;SDS011;30973;51.442;3.580;2024-02-21T00:23:20;5.53;;;2.70;;
45236;SDS011;30973;51.442;3.580;2024-02-21T00:25:52;5.28;;;2.75;;
45236;SDS011;30973;51.442;3.580;2024-02-21T00:28:22;9.77;;;3.10;;
45236;SDS011;30973;51.442;3.580;2024-02-21T00:31:00;8.20;;;2.55;;
45236;SDS011;30973;51.442;3.580;2024-02-21T00:40:11;6.55;;;2.60;;
45236;SDS011;30973;51.442;3.580;2024-02-21T00:42:50;8.68;;;3.00;;
45236;SDS011;30973;51.442;3.580;2024-02-21T00:45:40;6.95;;;3.10;;
45236;SDS011;30973;51.442;3.580;2024-02-21T00:54:59;6.55;;;2.70;;
45236;SDS011;30973;51.442;3.580;2024-02-21T00:57:36;5.75;;;2.63;;
45236;SDS011;30973;51.442;3.580;2024-02-21T01:00:03;4.13;;;2.78;;
45236;SDS011;30973;51.442;3.580;2024-02-21T01:02:31;8.60;;;3.40;;
45236;SDS011;30973;51.442;3.580;2024-02-21T01:05:04;5.55;;;2.97;;
45236;SDS011;30973;51.442;3.580;2024-02-21T01:07:31;7.80;;;3.85;;
45236;SDS011;30973;51.442;3.580;2024-02-21T01:09:59;5.82;;;3.05;;
45236;SDS011;30973;51.442;3.580;2024-02-21T01:12:46;6.63;;;3.20;;
45236;SDS011;30973;51.442;3.580;2024-02-21T01:15:47;4.85;;;2.78;;
45236;SDS011;30973;51.442;3.580;2024-02-21T01:18:53;8.90;;;2.83;;
45236;SDS011;30973;51.442;3.580;2024-02-21T01:21:39;7.65;;;3.40;;
45236;SDS011;30973;51.442;3.580;2024-02-21T01:24:26;5.80;;;2.90;;
45236;SDS011;30973;51.442;3.580;2024-02-21T01:26:54;9.27;;;3.50;;
45236;SDS011;30973;51.442;3.580;2024-02-21T01:29:22;6.50;;;3.30;;
45236;SDS011;30973;51.442;3.580;2024-02-21T01:31:50;6.45;;;3.20;;
45236;SDS011;30973;51.442;3.580;2024-02-21T01:34:17;5.00;;;3.17;;
45236;SDS011;30973;51.442;3.580;2024-02-21T01:36:45;8.38;;;3.42;;
45236;SDS011;30973;51.442;3.580;2024-02-21T01:39:16;8.70;;;3.78;;
45236;SDS011;30973;51.442;3.580;2024-02-21T01:41:44;7.22;;;3.80;;
45236;SDS011;30973;51.442;3.580;2024-02-21T01:44:16;10.20;;;5.20;;
45236;SDS011;30973;51.442;3.580;2024-02-21T01:46:59;5.20;;;3.30;;
45236;SDS011;30973;51.442;3.580;2024-02-21T01:49:57;5.38;;;3.67;;
45236;SDS011;30973;51.442;3.580;2024-02-21T01:52:29;6.45;;;3.60;;
45236;SDS011;30973;51.442;3.580;2024-02-21T01:54:57;8.77;;;4.72;;
45236;SDS011;30973;51.442;3.580;2024-02-21T01:57:25;5.20;;;3.30;;
45236;SDS011;30973;51.442;3.580;2024-02-21T01:59:55;7.72;;;3.50;;
45236;SDS011;30973;51.442;3.580;2024-02-21T02:02:23;7.68;;;3.42;;
45236;SDS011;30973;51.442;3.580;2024-02-21T02:05:02;6.07;;;3.90;;
45236;SDS011;30973;51.442;3.580;2024-02-21T02:07:33;7.15;;;3.30;;
45236;SDS011;30973;51.442;3.580;2024-02-21T02:10:07;7.38;;;3.78;;
45236;SDS011;30973;51.442;3.580;2024-02-21T02:12:37;5.90;;;3.30;;
45236;SDS011;30973;51.442;3.580;2024-02-21T02:15:07;8.73;;;3.83;;
45236;SDS011;30973;51.442;3.580;2024-02-21T02:17:41;7.63;;;4.00;;
45236;SDS011;30973;51.442;3.580;2024-02-21T02:20:25;6.95;;;3.55;;
45236;SDS011;30973;51.442;3.580;2024-02-21T02:23:03;11.43;;;3.75;;
45236;SDS011;30973;51.442;3.580;2024-02-21T02:25:37;6.63;;;3.58;;
45236;SDS011;30973;51.442;3.580;2024-02-21T02:28:38;5.53;;;3.35;;
45236;SDS011;30973;51.442;3.580;2024-02-21T02:52:21;8.68;;;4.15;;
45236;SDS011;30973;51.442;3.580;2024-02-21T02:54:58;5.60;;;3.92;;
45236;SDS011;30973;51.442;3.580;2024-02-21T02:57:28;7.50;;;4.03;;
45236;SDS011;30973;51.442;3.580;2024-02-21T02:59:55;7.97;;;4.10;;
45236;SDS011;30973;51.442;3.580;2024-02-21T03:02:33;6.65;;;4.30;;
45236;SDS011;30973;51.442;3.580;2024-02-21T03:05:03;5.20;;;3.90;;
45236;SDS011;30973;51.442;3.580;2024-02-21T03:08:05;8.55;;;4.32;;
45236;SDS011;30973;51.442;3.580;2024-02-21T03:10:34;6.60;;;4.18;;
45236;SDS011;30973;51.442;3.580;2024-02-21T03:13:01;5.93;;;3.47;;
45236;SDS011;30973;51.442;3.580;2024-02-21T03:15:30;6.47;;;4.00;;
45236;SDS011;30973;51.442;3.580;2024-02-21T03:17:57;9.27;;;4.20;;
45236;SDS011;30973;51.442;3.580;2024-02-21T03:20:28;6.13;;;3.90;;
45236;SDS011;30973;51.442;3.580;2024-02-21T03:22:58;7.20;;;4.13;;
45236;SDS011;30973;51.442;3.580;2024-02-21T03:25:26;6.22;;;4.18;;
45236;SDS011;30973;51.442;3.580;2024-02-21T03:28:17;6.38;;;4.05;;
45236;SDS011;30973;51.442;3.580;2024-02-21T03:45:02;8.88;;;5.72;;
45236;SDS011;30973;51.442;3.580;2024-02-21T03:47:38;7.78;;;4.82;;
45236;SDS011;30973;51.442;3.580;2024-02-21T03:50:15;7.32;;;5.40;;
45236;SDS011;30973;51.442;3.580;2024-02-21T03:53:12;8.50;;;5.40;;
45236;SDS011;30973;51.442;3.580;2024-02-21T03:56:06;9.50;;;5.35;;
45236;SDS011;30973;51.442;3.580;2024-02-21T03:58:42;9.73;;;5.55;;
45236;SDS011;30973;51.442;3.580;2024-02-21T04:01:14;9.68;;;5.97;;
45236;SDS011;30973;51.442;3.580;2024-02-21T04:04:22;7.40;;;5.13;;
45236;SDS011;30973;51.442;3.580;2024-02-21T04:06:59;9.45;;;5.57;;
45236;SDS011;30973;51.442;3.580;2024-02-21T04:09:48;8.38;;;5.82;;
45236;SDS011;30973;51.442;3.580;2024-02-21T04:12:18;8.13;;;6.03;;
45236;SDS011;30973;51.442;3.580;2024-02-21T04:14:45;8.43;;;6.35;;
45236;SDS011;30973;51.442;3.580;2024-02-21T04:17:13;9.70;;;5.93;;
45236;SDS011;30973;51.442;3.580;2024-02-21T04:19:43;8.77;;;6.10;;
45236;SDS011;30973;51.442;3.580;2024-02-21T04:22:15;8.95;;;6.43;;
45236;SDS011;30973;51.442;3.580;2024-02-21T04:24:57;7.70;;;6.53;;
45236;SDS011;30973;51.442;3.580;2024-02-21T04:27:28;8.68;;;6.25;;
45236;SDS011;30973;51.442;3.580;2024-02-21T04:29:56;9.23;;;6.90;;
45236;SDS011;30973;51.442;3.580;2024-02-21T04:32:23;9.98;;;6.30;;
45236;SDS011;30973;51.442;3.580;2024-02-21T04:34:54;9.40;;;6.55;;
45236;SDS011;30973;51.442;3.580;2024-02-21T04:37:21;10.68;;;7.90;;
45236;SDS011;30973;51.442;3.580;2024-02-21T04:39:51;10.73;;;6.93;;
45236;SDS011;30973;51.442;3.580;2024-02-21T04:42:21;10.82;;;7.90;;
45236;SDS011;30973;51.442;3.580;2024-02-21T04:44:49;13.63;;;7.90;;
45236;SDS011;30973;51.442;3.580;2024-02-21T05:13:14;12.80;;;7.38;;
45236;SDS011;30973;51.442;3.580;2024-02-21T05:15:42;14.40;;;7.90;;
45236;SDS011;30973;51.442;3.580;2024-02-21T05:18:09;10.45;;;7.63;;
45236;SDS011;30973;51.442;3.580;2024-02-21T05:20:39;13.48;;;8.38;;
45236;SDS011;30973;51.442;3.580;2024-02-21T05:23:07;13.13;;;8.65;;
45236;SDS011;30973;51.442;3.580;2024-02-21T05:25:37;14.55;;;9.02;;
45236;SDS011;30973;51.442;3.580;2024-02-21T05:28:05;18.48;;;8.57;;
45236;SDS011;30973;51.442;3.580;2024-02-21T05:30:33;13.23;;;8.25;;
45236;SDS011;30973;51.442;3.580;2024-02-21T05:33:05;17.55;;;8.80;;
45236;SDS011;30973;51.442;3.580;2024-02-21T05:35:35;12.70;;;8.00;;
45236;SDS011;30973;51.442;3.580;2024-02-21T05:41:35;14.63;;;8.50;;
45236;SDS011;30973;51.442;3.580;2024-02-21T05:59:38;12.85;;;8.35;;
45236;SDS011;30973;51.442;3.580;2024-02-21T06:02:15;18.55;;;9.18;;
45236;SDS011;30973;51.442;3.580;2024-02-21T06:04:47;16.10;;;8.88;;
45236;SDS011;30973;51.442;3.580;2024-02-21T06:07:15;14.90;;;9.18;;
45236;SDS011;30973;51.442;3.580;2024-02-21T06:09:47;15.25;;;9.52;;
45236;SDS011;30973;51.442;3.580;2024-02-21T06:12:17;12.50;;;8.27;;
45236;SDS011;30973;51.442;3.580;2024-02-21T06:14:45;17.05;;;8.15;;
45236;SDS011;30973;51.442;3.580;2024-02-21T06:17:14;18.60;;;9.10;;
45236;SDS011;30973;51.442;3.580;2024-02-21T06:19:42;12.57;;;9.05;;
45236;SDS011;30973;51.442;3.580;2024-02-21T06:22:10;15.80;;;9.02;;
45236;SDS011;30973;51.442;3.580;2024-02-21T06:24:38;12.93;;;8.73;;
45236;SDS011;30973;51.442;3.580;2024-02-21T06:27:06;11.82;;;8.82;;
45236;SDS011;30973;51.442;3.580;2024-02-21T06:29:37;14.90;;;9.43;;
45236;SDS011;30973;51.442;3.580;2024-02-21T06:35:07;15.68;;;8.00;;
45236;SDS011;30973;51.442;3.580;2024-02-21T06:37:59;12.05;;;8.57;;
45236;SDS011;30973;51.442;3.580;2024-02-21T06:40:30;17.35;;;8.68;;
45236;SDS011;30973;51.442;3.580;2024-02-21T06:43:06;14.35;;;9.50;;
45236;SDS011;30973;51.442;3.580;2024-02-21T06:45:34;19.67;;;9.52;;
45236;SDS011;30973;51.442;3.580;2024-02-21T06:48:04;14.43;;;8.90;;
45236;SDS011;30973;51.442;3.580;2024-02-21T06:50:32;16.52;;;8.50;;
45236;SDS011;30973;51.442;3.580;2024-02-21T06:53:03;12.48;;;8.07;;
45236;SDS011;30973;51.442;3.580;2024-02-21T06:55:30;14.23;;;8.95;;
45236;SDS011;30973;51.442;3.580;2024-02-21T06:57:58;18.15;;;9.63;;
45236;SDS011;30973;51.442;3.580;2024-02-21T07:00:25;14.40;;;9.02;;
45236;SDS011;30973;51.442;3.580;2024-02-21T07:06:28;13.85;;;8.68;;
45236;SDS011;30973;51.442;3.580;2024-02-21T07:09:27;13.32;;;8.25;;
45236;SDS011;30973;51.442;3.580;2024-02-21T07:11:58;11.98;;;8.35;;
45236;SDS011;30973;51.442;3.580;2024-02-21T07:14:27;13.55;;;8.75;;
45236;SDS011;30973;51.442;3.580;2024-02-21T07:16:55;15.93;;;8.55;;
45236;SDS011;30973;51.442;3.580;2024-02-21T07:19:23;13.18;;;8.63;;
45236;SDS011;30973;51.442;3.580;2024-02-21T07:21:51;13.95;;;8.15;;
45236;SDS011;30973;51.442;3.580;2024-02-21T07:24:18;14.43;;;8.43;;
45236;SDS011;30973;51.442;3.580;2024-02-21T07:26:46;15.02;;;8.15;;
45236;SDS011;30973;51.442;3.580;2024-02-21T07:29:13;14.07;;;8.18;;
45236;SDS011;30973;51.442;3.580;2024-02-21T07:31:41;9.23;;;7.63;;
45236;SDS011;30973;51.442;3.580;2024-02-21T07:34:09;15.13;;;8.20;;
45236;SDS011;30973;51.442;3.580;2024-02-21T07:36:36;10.85;;;7.60;;
45236;SDS011;30973;51.442;3.580;2024-02-21T07:39:05;11.60;;;7.80;;
45236;SDS011;30973;51.442;3.580;2024-02-21T07:41:33;12.48;;;8.68;;
45236;SDS011;30973;51.442;3.580;2024-02-21T07:44:01;13.50;;;7.80;;
45236;SDS011;30973;51.442;3.580;2024-02-21T07:46:30;11.68;;;7.75;;
45236;SDS011;30973;51.442;3.580;2024-02-21T07:48:57;10.88;;;6.82;;
45236;SDS011;30973;51.442;3.580;2024-02-21T07:51:27;10.40;;;7.32;;
45236;SDS011;30973;51.442;3.580;2024-02-21T07:53:54;11.85;;;8.07;;
45236;SDS011;30973;51.442;3.580;2024-02-21T07:56:22;9.73;;;7.25;;
45236;SDS011;30973;51.442;3.580;2024-02-21T07:58:49;13.10;;;8.05;;
45236;SDS011;30973;51.442;3.580;2024-02-21T08:01:18;12.30;;;8.07;;
45236;SDS011;30973;51.442;3.580;2024-02-21T08:04:11;13.68;;;7.93;;
45236;SDS011;30973;51.442;3.580;2024-02-21T08:06:44;12.57;;;7.82;;
45236;SDS011;30973;51.442;3.580;2024-02-21T08:09:12;9.90;;;6.88;;
45236;SDS011;30973;51.442;3.580;2024-02-21T08:11:39;10.93;;;7.47;;
45236;SDS011;30973;51.442;3.580;2024-02-21T08:14:07;12.52;;;6.90;;
45236;SDS011;30973;51.442;3.580;2024-02-21T08:16:34;10.25;;;7.47;;
45236;SDS011;30973;51.442;3.580;2024-02-21T08:19:02;13.05;;;7.32;;
45236;SDS011;30973;51.442;3.580;2024-02-21T08:21:30;11.90;;;7.47;;
45236;SDS011;30973;51.442;3.580;2024-02-21T08:23:58;11.45;;;6.75;;
45236;SDS011;30973;51.442;3.580;2024-02-21T08:26:25;11.23;;;7.50;;
45236;SDS011;30973;51.442;3.580;2024-02-21T08:28:56;12.05;;;7.03;;
45236;SDS011;30973;51.442;3.580;2024-02-21T08:31:26;9.73;;;7.63;;
45236;SDS011;30973;51.442;3.580;2024-02-21T08:34:01;9.55;;;7.13;;
45236;SDS011;30973;51.442;3.580;2024-02-21T08:36:35;11.45;;;7.53;;
45236;SDS011;30973;51.442;3.580;2024-02-21T08:39:03;11.52;;;7.57;;
45236;SDS011;30973;51.442;3.580;2024-02-21T08:41:31;17.48;;;8.30;;
45236;SDS011;30973;51.442;3.580;2024-02-21T08:44:19;14.32;;;7.63;;
45236;SDS011;30973;51.442;3.580;2024-02-21T08:46:47;9.02;;;6.82;;
45236;SDS011;30973;51.442;3.580;2024-02-21T08:49:17;9.98;;;7.55;;
45236;SDS011;30973;51.442;3.580;2024-02-21T08:51:45;12.27;;;8.00;;
45236;SDS011;30973;51.442;3.580;2024-02-21T08:54:13;10.43;;;7.15;;
45236;SDS011;30973;51.442;3.580;2024-02-21T08:56:40;9.02;;;7.28;;
45236;SDS011;30973;51.442;3.580;2024-02-21T08:59:08;10.27;;;7.15;;
45236;SDS011;30973;51.442;3.580;2024-02-21T09:05:00;11.23;;;7.75;;
45236;SDS011;30973;51.442;3.580;2024-02-21T09:07:35;10.68;;;6.90;;
45236;SDS011;30973;51.442;3.580;2024-02-21T09:10:07;12.63;;;7.60;;
45236;SDS011;30973;51.442;3.580;2024-02-21T09:12:35;15.00;;;8.45;;
45236;SDS011;30973;51.442;3.580;2024-02-21T09:15:02;11.95;;;7.53;;
45236;SDS011;30973;51.442;3.580;2024-02-21T09:17:30;9.25;;;7.63;;
45236;SDS011;30973;51.442;3.580;2024-02-21T09:19:57;13.43;;;8.00;;
45236;SDS011;30973;51.442;3.580;2024-02-21T09:22:29;10.00;;;7.43;;
45236;SDS011;30973;51.442;3.580;2024-02-21T09:25:01;11.23;;;7.93;;
45236;SDS011;30973;51.442;3.580;2024-02-21T09:27:30;9.88;;;7.03;;
45236;SDS011;30973;51.442;3.580;2024-02-21T09:29:57;12.75;;;8.00;;
45236;SDS011;30973;51.442;3.580;2024-02-21T09:32:25;11.55;;;7.93;;
45236;SDS011;30973;51.442;3.580;2024-02-21T09:34:53;11.60;;;7.97;;
45236;SDS011;30973;51.442;3.580;2024-02-21T09:37:25;11.32;;;7.40;;
45236;SDS011;30973;51.442;3.580;2024-02-21T09:39:53;10.13;;;7.75;;
45236;SDS011;30973;51.442;3.580;2024-02-21T09:42:20;10.93;;;7.82;;
45236;SDS011;30973;51.442;3.580;2024-02-21T09:44:48;13.52;;;7.90;;
45236;SDS011;30973;51.442;3.580;2024-02-21T09:47:19;13.35;;;7.25;;
45236;SDS011;30973;51.442;3.580;2024-02-21T09:49:49;11.50;;;7.40;;
45236;SDS011;30973;51.442;3.580;2024-02-21T09:52:18;11.52;;;7.85;;
45236;SDS011;30973;51.442;3.580;2024-02-21T09:54:46;12.55;;;7.53;;
45236;SDS011;30973;51.442;3.580;2024-02-21T09:57:15;11.48;;;7.82;;
45236;SDS011;30973;51.442;3.580;2024-02-21T09:59:43;12.27;;;7.88;;
45236;SDS011;30973;51.442;3.580;2024-02-21T10:02:11;11.40;;;7.68;;
45236;SDS011;30973;51.442;3.580;2024-02-21T10:04:39;11.52;;;7.45;;
45236;SDS011;30973;51.442;3.580;2024-02-21T10:07:08;11.85;;;8.00;;
45236;SDS011;30973;51.442;3.580;2024-02-21T10:09:35;12.27;;;8.05;;
45236;SDS011;30973;51.442;3.580;2024-02-21T10:12:09;9.48;;;7.60;;
45236;SDS011;30973;51.442;3.580;2024-02-21T10:14:38;13.15;;;8.27;;
45236;SDS011;30973;51.442;3.580;2024-02-21T10:17:21;13.98;;;7.53;;
45236;SDS011;30973;51.442;3.580;2024-02-21T10:23:41;9.73;;;7.00;;
45236;SDS011;30973;51.442;3.580;2024-02-21T10:27:04;10.60;;;7.40;;
45236;SDS011;30973;51.442;3.580;2024-02-21T10:29:35;11.93;;;7.45;;
45236;SDS011;30973;51.442;3.580;2024-02-21T10:32:09;11.68;;;7.38;;
45236;SDS011;30973;51.442;3.580;2024-02-21T10:34:38;11.85;;;8.38;;
45236;SDS011;30973;51.442;3.580;2024-02-21T10:37:07;12.88;;;7.68;;
45236;SDS011;30973;51.442;3.580;2024-02-21T10:39:36;13.13;;;7.07;;
45236;SDS011;30973;51.442;3.580;2024-02-21T10:42:05;10.27;;;7.25;;
45236;SDS011;30973;51.442;3.580;2024-02-21T10:44:32;11.27;;;6.97;;
45236;SDS011;30973;51.442;3.580;2024-02-21T10:47:00;9.38;;;6.78;;
45236;SDS011;30973;51.442;3.580;2024-02-21T10:49:30;10.75;;;6.82;;
45236;SDS011;30973;51.442;3.580;2024-02-21T10:52:22;12.80;;;6.47;;
45236;SDS011;30973;51.442;3.580;2024-02-21T10:57:14;13.90;;;7.35;;
45236;SDS011;30973;51.442;3.580;2024-02-21T10:59:41;11.25;;;6.50;;
45236;SDS011;30973;51.442;3.580;2024-02-21T11:02:10;10.55;;;6.10;;
45236;SDS011;30973;51.442;3.580;2024-02-21T11:04:38;10.23;;;6.43;;
45236;SDS011;30973;51.442;3.580;2024-02-21T11:07:06;8.43;;;5.90;;
45236;SDS011;30973;51.442;3.580;2024-02-21T11:09:37;10.75;;;6.35;;
45236;SDS011;30973;51.442;3.580;2024-02-21T11:12:05;9.50;;;6.70;;
45236;SDS011;30973;51.442;3.580;2024-02-21T11:14:34;9.05;;;6.28;;
45236;SDS011;30973;51.442;3.580;2024-02-21T11:17:14;9.95;;;6.65;;
45236;SDS011;30973;51.442;3.580;2024-02-21T11:20:15;9.13;;;6.45;;
45236;SDS011;30973;51.442;3.580;2024-02-21T11:22:48;9.43;;;6.63;;
45236;SDS011;30973;51.442;3.580;2024-02-21T11:25:21;12.52;;;6.45;;
45236;SDS011;30973;51.442;3.580;2024-02-21T11:27:48;9.07;;;6.22;;
45236;SDS011;30973;51.442;3.580;2024-02-21T11:30:17;10.10;;;6.18;;
45236;SDS011;30973;51.442;3.580;2024-02-21T11:32:49;9.63;;;6.57;;
45236;SDS011;30973;51.442;3.580;2024-02-21T11:35:19;14.10;;;6.70;;
45236;SDS011;30973;51.442;3.580;2024-02-21T11:37:47;8.45;;;6.43;;
45236;SDS011;30973;51.442;3.580;2024-02-21T11:40:15;10.88;;;6.30;;
45236;SDS011;30973;51.442;3.580;2024-02-21T11:42:42;11.73;;;7.18;;
45236;SDS011;30973;51.442;3.580;2024-02-21T11:45:09;8.50;;;5.85;;
45236;SDS011;30973;51.442;3.580;2024-02-21T11:47:37;9.70;;;6.35;;
45236;SDS011;30973;51.442;3.580;2024-02-21T11:50:09;8.65;;;6.43;;
45236;SDS011;30973;51.442;3.580;2024-02-21T11:52:38;12.35;;;6.53;;
45236;SDS011;30973;51.442;3.580;2024-02-21T11:55:06;10.20;;;6.40;;
45236;SDS011;30973;51.442;3.580;2024-02-21T11:57:36;11.00;;;6.10;;
45236;SDS011;30973;51.442;3.580;2024-02-21T12:02:39;8.07;;;6.07;;
45236;SDS011;30973;51.442;3.580;2024-02-21T12:05:07;9.52;;;6.30;;
45236;SDS011;30973;51.442;3.580;2024-02-21T12:07:37;11.25;;;6.50;;
45236;SDS011;30973;51.442;3.580;2024-02-21T12:10:11;9.88;;;6.32;;
45236;SDS011;30973;51.442;3.580;2024-02-21T12:12:38;10.35;;;6.57;;
45236;SDS011;30973;51.442;3.580;2024-02-21T12:15:07;8.13;;;6.13;;
45236;SDS011;30973;51.442;3.580;2024-02-21T12:17:35;9.90;;;6.75;;
45236;SDS011;30973;51.442;3.580;2024-02-21T12:20:03;8.32;;;6.78;;
45236;SDS011;30973;51.442;3.580;2024-02-21T12:22:37;9.43;;;6.20;;
45236;SDS011;30973;51.442;3.580;2024-02-21T12:25:15;9.38;;;6.93;;
45236;SDS011;30973;51.442;3.580;2024-02-21T12:27:45;8.40;;;6.28;;
45236;SDS011;30973;51.442;3.580;2024-02-21T12:37:23;6.70;;;5.10;;
45236;SDS011;30973;51.442;3.580;2024-02-21T12:40:17;8.02;;;5.90;;
45236;SDS011;30973;51.442;3.580;2024-02-21T12:42:54;9.25;;;5.65;;
45236;SDS011;30973;51.442;3.580;2024-02-21T12:45:26;7.88;;;5.68;;
45236;SDS011;30973;51.442;3.580;2024-02-21T12:47:58;7.10;;;5.65;;
45236;SDS011;30973;51.442;3.580;2024-02-21T12:50:26;6.97;;;5.22;;
45236;SDS011;30973;51.442;3.580;2024-02-21T12:52:53;6.10;;;5.07;;
45236;SDS011;30973;51.442;3.580;2024-02-21T12:55:24;9.43;;;5.68;;
45236;SDS011;30973;51.442;3.580;2024-02-21T12:57:52;13.48;;;5.78;;
45236;SDS011;30973;51.442;3.580;2024-02-21T13:00:21;6.90;;;4.95;;
45236;SDS011;30973;51.442;3.580;2024-02-21T13:02:49;7.40;;;5.03;;
45236;SDS011;30973;51.442;3.580;2024-02-21T13:05:17;7.03;;;5.25;;
45236;SDS011;30973;51.442;3.580;2024-02-21T13:07:45;8.60;;;5.65;;
45236;SDS011;30973;51.442;3.580;2024-02-21T13:10:15;8.30;;;5.50;;
45236;SDS011;30973;51.442;3.580;2024-02-21T13:12:42;6.35;;;5.00;;
45236;SDS011;30973;51.442;3.580;2024-02-21T13:15:10;9.00;;;6.07;;
45236;SDS011;30973;51.442;3.580;2024-02-21T13:17:38;13.15;;;6.13;;
45236;SDS011;30973;51.442;3.580;2024-02-21T13:20:06;7.43;;;5.68;;
45236;SDS011;30973;51.442;3.580;2024-02-21T13:22:35;12.75;;;6.13;;
45236;SDS011;30973;51.442;3.580;2024-02-21T13:25:03;9.45;;;5.93;;
45236;SDS011;30973;51.442;3.580;2024-02-21T13:27:31;7.95;;;5.88;;
45236;SDS011;30973;51.442;3.580;2024-02-21T13:29:59;10.80;;;6.60;;
45236;SDS011;30973;51.442;3.580;2024-02-21T13:33:08;9.27;;;6.47;;
45236;SDS011;30973;51.442;3.580;2024-02-21T13:35:57;7.63;;;5.97;;
45236;SDS011;30973;51.442;3.580;2024-02-21T13:38:47;7.50;;;5.70;;
45236;SDS011;30973;51.442;3.580;2024-02-21T13:41:34;10.52;;;5.80;;
45236;SDS011;30973;51.442;3.580;2024-02-21T13:44:34;7.22;;;5.60;;
45236;SDS011;30973;51.442;3.580;2024-02-21T13:47:03;8.63;;;5.70;;
45236;SDS011;30973;51.442;3.580;2024-02-21T13:49:31;8.98;;;5.68;;
45236;SDS011;30973;51.442;3.580;2024-02-21T13:51:59;9.07;;;5.93;;
45236;SDS011;30973;51.442;3.580;2024-02-21T13:54:26;7.93;;;5.32;;
45236;SDS011;30973;51.442;3.580;2024-02-21T13:56:54;10.50;;;6.15;;
45236;SDS011;30973;51.442;3.580;2024-02-21T13:59:21;8.63;;;6.15;;
45236;SDS011;30973;51.442;3.580;2024-02-21T14:01:49;10.07;;;6.10;;
45236;SDS011;30973;51.442;3.580;2024-02-21T14:04:17;12.40;;;5.72;;
45236;SDS011;30973;51.442;3.580;2024-02-21T14:06:44;7.65;;;5.78;;
45236;SDS011;30973;51.442;3.580;2024-02-21T14:09:12;9.85;;;5.90;;
45236;SDS011;30973;51.442;3.580;2024-02-21T14:11:40;6.68;;;5.60;;
45236;SDS011;30973;51.442;3.580;2024-02-21T14:14:08;8.65;;;5.53;;
45236;SDS011;30973;51.442;3.580;2024-02-21T14:16:36;7.97;;;4.90;;
45236;SDS011;30973;51.442;3.580;2024-02-21T14:19:04;7.40;;;5.55;;
45236;SDS011;30973;51.442;3.580;2024-02-21T14:21:33;8.90;;;5.90;;
45236;SDS011;30973;51.442;3.580;2024-02-21T14:24:04;7.75;;;5.47;;
45236;SDS011;30973;51.442;3.580;2024-02-21T14:26:32;7.90;;;5.38;;
45236;SDS011;30973;51.442;3.580;2024-02-21T14:28:59;10.23;;;5.65;;
45236;SDS011;30973;51.442;3.580;2024-02-21T14:31:27;11.50;;;6.25;;
45236;SDS011;30973;51.442;3.580;2024-02-21T14:33:55;13.48;;;5.93;;
45236;SDS011;30973;51.442;3.580;2024-02-21T14:36:22;8.80;;;5.53;;
45236;SDS011;30973;51.442;3.580;2024-02-21T14:38:53;9.25;;;6.03;;
45236;SDS011;30973;51.442;3.580;2024-02-21T14:41:21;11.27;;;5.95;;
45236;SDS011;30973;51.442;3.580;2024-02-21T14:43:48;10.57;;;6.00;;
45236;SDS011;30973;51.442;3.580;2024-02-21T14:46:34;12.35;;;5.68;;
45236;SDS011;30973;51.442;3.580;2024-02-21T14:49:27;9.68;;;6.53;;
45236;SDS011;30973;51.442;3.580;2024-02-21T14:55:36;11.55;;;6.35;;
45236;SDS011;30973;51.442;3.580;2024-02-21T14:58:08;9.57;;;6.22;;
45236;SDS011;30973;51.442;3.580;2024-02-21T15:00:37;8.35;;;5.60;;
45236;SDS011;30973;51.442;3.580;2024-02-21T15:03:05;13.48;;;6.95;;
45236;SDS011;30973;51.442;3.580;2024-02-21T15:05:32;8.35;;;5.68;;
45236;SDS011;30973;51.442;3.580;2024-02-21T15:08:01;13.98;;;6.97;;
45236;SDS011;30973;51.442;3.580;2024-02-21T15:10:28;9.15;;;5.78;;
45236;SDS011;30973;51.442;3.580;2024-02-21T15:12:56;11.20;;;5.72;;
45236;SDS011;30973;51.442;3.580;2024-02-21T15:15:24;10.82;;;6.25;;
45236;SDS011;30973;51.442;3.580;2024-02-21T15:17:51;8.25;;;6.30;;
45236;SDS011;30973;51.442;3.580;2024-02-21T15:20:19;11.20;;;5.82;;
45236;SDS011;30973;51.442;3.580;2024-02-21T15:22:49;7.57;;;6.18;;
45236;SDS011;30973;51.442;3.580;2024-02-21T15:25:17;11.10;;;6.07;;
45236;SDS011;30973;51.442;3.580;2024-02-21T15:27:45;10.15;;;6.20;;
45236;SDS011;30973;51.442;3.580;2024-02-21T15:30:12;8.90;;;5.60;;
45236;SDS011;30973;51.442;3.580;2024-02-21T15:32:41;9.50;;;6.28;;
45236;SDS011;30973;51.442;3.580;2024-02-21T15:35:11;9.77;;;5.85;;
45236;SDS011;30973;51.442;3.580;2024-02-21T15:37:39;9.13;;;6.32;;
45236;SDS011;30973;51.442;3.580;2024-02-21T15:40:07;9.20;;;6.00;;
45236;SDS011;30973;51.442;3.580;2024-02-21T15:42:35;11.50;;;6.20;;
45236;SDS011;30973;51.442;3.580;2024-02-21T15:48:34;10.50;;;6.22;;
45236;SDS011;30973;51.442;3.580;2024-02-21T15:51:17;11.70;;;6.07;;
45236;SDS011;30973;51.442;3.580;2024-02-21T15:54:55;7.60;;;5.28;;
45236;SDS011;30973;51.442;3.580;2024-02-21T16:01:38;9.98;;;6.68;;
45236;SDS011;30973;51.442;3.580;2024-02-21T16:04:34;9.18;;;6.05;;
45236;SDS011;30973;51.442;3.580;2024-02-21T16:08:08;8.25;;;6.45;;
45236;SDS011;30973;51.442;3.580;2024-02-21T16:10:51;7.63;;;5.97;;
45236;SDS011;30973;51.442;3.580;2024-02-21T16:14:16;10.32;;;6.40;;
45236;SDS011;30973;51.442;3.580;2024-02-21T16:17:23;8.82;;;5.65;;
45236;SDS011;30973;51.442;3.580;2024-02-21T16:20:31;10.10;;;5.93;;
45236;SDS011;30973;51.442;3.580;2024-02-21T16:23:53;12.63;;;7.47;;
45236;SDS011;30973;51.442;3.580;2024-02-21T16:27:07;12.63;;;6.82;;
45236;SDS011;30973;51.442;3.580;2024-02-21T16:29:37;7.82;;;5.95;;
45236;SDS011;30973;51.442;3.580;2024-02-21T16:32:08;8.43;;;6.25;;
45236;SDS011;30973;51.442;3.580;2024-02-21T16:34:43;10.35;;;5.90;;
45236;SDS011;30973;51.442;3.580;2024-02-21T16:37:11;8.88;;;5.68;;
45236;SDS011;30973;51.442;3.580;2024-02-21T16:39:41;9.30;;;6.38;;
45236;SDS011;30973;51.442;3.580;2024-02-21T16:42:09;11.82;;;6.63;;
45236;SDS011;30973;51.442;3.580;2024-02-21T16:44:58;9.45;;;6.07;;
45236;SDS011;30973;51.442;3.580;2024-02-21T16:47:30;8.77;;;5.95;;
45236;SDS011;30973;51.442;3.580;2024-02-21T16:49:58;6.90;;;6.20;;
45236;SDS011;30973;51.442;3.580;2024-02-21T16:52:26;7.68;;;6.03;;
45236;SDS011;30973;51.442;3.580;2024-02-21T16:54:54;9.70;;;6.50;;
45236;SDS011;30973;51.442;3.580;2024-02-21T16:57:23;7.50;;;5.60;;
45236;SDS011;30973;51.442;3.580;2024-02-21T17:07:19;8.73;;;5.72;;
45236;SDS011;30973;51.442;3.580;2024-02-21T17:10:17;11.88;;;5.85;;
45236;SDS011;30973;51.442;3.580;2024-02-21T17:12:45;11.15;;;6.38;;
45236;SDS011;30973;51.442;3.580;2024-02-21T17:15:13;8.88;;;5.72;;
45236;SDS011;30973;51.442;3.580;2024-02-21T17:17:42;7.38;;;5.53;;
45236;SDS011;30973;51.442;3.580;2024-02-21T17:20:10;9.82;;;6.78;;
45236;SDS011;30973;51.442;3.580;2024-02-21T17:22:46;6.85;;;5.82;;
45236;SDS011;30973;51.442;3.580;2024-02-21T17:25:27;8.73;;;6.63;;
45236;SDS011;30973;51.442;3.580;2024-02-21T17:27:55;12.30;;;6.43;;
45236;SDS011;30973;51.442;3.580;2024-02-21T17:30:23;7.00;;;6.30;;
45236;SDS011;30973;51.442;3.580;2024-02-21T17:32:51;8.60;;;5.70;;
45236;SDS011;30973;51.442;3.580;2024-02-21T17:35:19;7.28;;;6.57;;
45236;SDS011;30973;51.442;3.580;2024-02-21T17:37:47;6.28;;;5.45;;